sensor_id;sensor_type;location;lat;lon;timestamp;P1;durP1;ratioP1;P2;durP2;ratioP2
67074;SDS011;53990;50.334;18.640;2022-12-20T00:01:27;30.70;;;15.30;;
67074;SDS011;53990;50.334;18.640;2022-12-20T00:03:57;29.50;;;14.70;;
67074;SDS011;53990;50.334;18.640;2022-12-20T00:06:25;27.90;;;14.90;;
67074;SDS011;53990;50.334;18.640;2022-12-20T00:08:54;30.20;;;15.20;;
67074;SDS011;53990;50.334;18.640;2022-12-20T00:11:22;29.20;;;14.80;;
67074;SDS011;53990;50.334;18.640;2022-12-20T00:13:49;29.20;;;14.40;;
67074;SDS011;53990;50.334;18.640;2022-12-20T00:16:19;32.50;;;16.30;;
67074;SDS011;53990;50.334;18.640;2022-12-20T00:18:50;31.70;;;16.20;;
67074;SDS011;53990;50.334;18.640;2022-12-20T00:21:18;30.70;;;15.60;;
67074;SDS011;53990;50.334;18.640;2022-12-20T00:23:46;29.30;;;15.30;;
67074;SDS011;53990;50.334;18.640;2022-12-20T00:26:16;32.80;;;16.50;;
67074;SDS011;53990;50.334;18.640;2022-12-20T00:28:44;29.00;;;15.90;;
67074;SDS011;53990;50.334;18.640;2022-12-20T00:31:13;29.90;;;15.20;;
67074;SDS011;53990;50.334;18.640;2022-12-20T00:33:44;27.40;;;15.00;;
67074;SDS011;53990;50.334;18.640;2022-12-20T00:36:13;32.50;;;15.90;;
67074;SDS011;53990;50.334;18.640;2022-12-20T00:38:40;29.30;;;15.90;;
67074;SDS011;53990;50.334;18.640;2022-12-20T00:41:13;32.20;;;15.70;;
67074;SDS011;53990;50.334;18.640;2022-12-20T00:43:41;30.20;;;16.70;;
67074;SDS011;53990;50.334;18.640;2022-12-20T00:46:10;29.40;;;15.60;;
67074;SDS011;53990;50.334;18.640;2022-12-20T00:48:37;31.70;;;16.00;;
67074;SDS011;53990;50.334;18.640;2022-12-20T00:51:11;34.30;;;16.70;;
67074;SDS011;53990;50.334;18.640;2022-12-20T00:53:39;30.10;;;16.00;;
67074;SDS011;53990;50.334;18.640;2022-12-20T00:56:07;35.40;;;16.20;;
67074;SDS011;53990;50.334;18.640;2022-12-20T00:58:37;28.30;;;15.70;;
67074;SDS011;53990;50.334;18.640;2022-12-20T01:01:20;29.20;;;15.70;;
67074;SDS011;53990;50.334;18.640;2022-12-20T01:03:49;29.60;;;15.90;;
67074;SDS011;53990;50.334;18.640;2022-12-20T01:06:17;30.50;;;16.40;;
67074;SDS011;53990;50.334;18.640;2022-12-20T01:08:45;32.30;;;16.30;;
67074;SDS011;53990;50.334;18.640;2022-12-20T01:11:26;34.00;;;16.70;;
67074;SDS011;53990;50.334;18.640;2022-12-20T01:13:56;32.80;;;16.30;;
67074;SDS011;53990;50.334;18.640;2022-12-20T01:16:30;30.60;;;15.60;;
67074;SDS011;53990;50.334;18.640;2022-12-20T01:18:58;34.50;;;17.50;;
67074;SDS011;53990;50.334;18.640;2022-12-20T01:21:26;28.90;;;15.70;;
67074;SDS011;53990;50.334;18.640;2022-12-20T01:23:54;35.90;;;17.30;;
67074;SDS011;53990;50.334;18.640;2022-12-20T01:26:25;31.90;;;16.50;;
67074;SDS011;53990;50.334;18.640;2022-12-20T01:28:55;33.60;;;16.60;;
67074;SDS011;53990;50.334;18.640;2022-12-20T01:31:23;30.50;;;16.20;;
67074;SDS011;53990;50.334;18.640;2022-12-20T01:33:51;31.40;;;16.60;;
67074;SDS011;53990;50.334;18.640;2022-12-20T01:36:23;32.10;;;16.80;;
67074;SDS011;53990;50.334;18.640;2022-12-20T01:38:59;29.20;;;15.10;;
67074;SDS011;53990;50.334;18.640;2022-12-20T01:41:28;31.00;;;16.30;;
67074;SDS011;53990;50.334;18.640;2022-12-20T01:43:59;32.20;;;16.40;;
67074;SDS011;53990;50.334;18.640;2022-12-20T01:46:29;34.30;;;16.20;;
67074;SDS011;53990;50.334;18.640;2022-12-20T01:52:32;32.90;;;17.00;;
67074;SDS011;53990;50.334;18.640;2022-12-20T01:55:06;29.40;;;15.40;;
67074;SDS011;53990;50.334;18.640;2022-12-20T01:57:51;29.70;;;15.30;;
67074;SDS011;53990;50.334;18.640;2022-12-20T02:00:21;30.30;;;16.30;;
67074;SDS011;53990;50.334;18.640;2022-12-20T02:02:49;30.90;;;15.80;;
67074;SDS011;53990;50.334;18.640;2022-12-20T02:05:18;33.20;;;17.10;;
67074;SDS011;53990;50.334;18.640;2022-12-20T02:07:48;31.40;;;16.80;;
67074;SDS011;53990;50.334;18.640;2022-12-20T02:10:18;35.10;;;16.40;;
67074;SDS011;53990;50.334;18.640;2022-12-20T02:12:47;33.40;;;16.40;;
67074;SDS011;53990;50.334;18.640;2022-12-20T02:18:07;29.20;;;15.60;;
67074;SDS011;53990;50.334;18.640;2022-12-20T02:21:07;30.20;;;15.70;;
67074;SDS011;53990;50.334;18.640;2022-12-20T02:24:20;34.40;;;17.30;;
67074;SDS011;53990;50.334;18.640;2022-12-20T02:32:04;31.00;;;15.90;;
67074;SDS011;53990;50.334;18.640;2022-12-20T02:34:35;31.00;;;16.80;;
67074;SDS011;53990;50.334;18.640;2022-12-20T02:37:03;28.30;;;15.20;;
67074;SDS011;53990;50.334;18.640;2022-12-20T02:39:32;32.10;;;16.10;;
67074;SDS011;53990;50.334;18.640;2022-12-20T02:42:05;30.80;;;15.70;;
67074;SDS011;53990;50.334;18.640;2022-12-20T02:44:35;28.90;;;15.50;;
67074;SDS011;53990;50.334;18.640;2022-12-20T02:48:14;27.90;;;15.00;;
67074;SDS011;53990;50.334;18.640;2022-12-20T02:50:45;29.70;;;15.60;;
67074;SDS011;53990;50.334;18.640;2022-12-20T02:53:12;27.50;;;15.00;;
67074;SDS011;53990;50.334;18.640;2022-12-20T02:55:45;29.70;;;15.10;;
67074;SDS011;53990;50.334;18.640;2022-12-20T03:01:21;31.40;;;16.20;;
67074;SDS011;53990;50.334;18.640;2022-12-20T03:03:50;32.70;;;16.50;;
67074;SDS011;53990;50.334;18.640;2022-12-20T03:06:18;31.10;;;16.50;;
67074;SDS011;53990;50.334;18.640;2022-12-20T03:08:45;32.40;;;16.00;;
67074;SDS011;53990;50.334;18.640;2022-12-20T03:11:13;27.20;;;15.10;;
67074;SDS011;53990;50.334;18.640;2022-12-20T03:13:40;30.20;;;16.10;;
67074;SDS011;53990;50.334;18.640;2022-12-20T03:16:07;32.00;;;15.80;;
67074;SDS011;53990;50.334;18.640;2022-12-20T03:18:37;31.80;;;16.40;;
67074;SDS011;53990;50.334;18.640;2022-12-20T03:21:04;31.90;;;15.50;;
67074;SDS011;53990;50.334;18.640;2022-12-20T03:23:31;33.90;;;17.40;;
67074;SDS011;53990;50.334;18.640;2022-12-20T03:25:59;31.70;;;16.30;;
67074;SDS011;53990;50.334;18.640;2022-12-20T03:28:26;30.70;;;15.70;;
67074;SDS011;53990;50.334;18.640;2022-12-20T03:30:53;31.80;;;16.20;;
67074;SDS011;53990;50.334;18.640;2022-12-20T03:33:20;31.30;;;16.30;;
67074;SDS011;53990;50.334;18.640;2022-12-20T03:35:48;29.80;;;16.20;;
67074;SDS011;53990;50.334;18.640;2022-12-20T03:38:15;31.50;;;16.70;;
67074;SDS011;53990;50.334;18.640;2022-12-20T03:40:42;33.70;;;16.70;;
67074;SDS011;53990;50.334;18.640;2022-12-20T03:43:09;33.30;;;17.40;;
67074;SDS011;53990;50.334;18.640;2022-12-20T03:45:36;28.90;;;16.40;;
67074;SDS011;53990;50.334;18.640;2022-12-20T03:48:04;34.70;;;17.50;;
67074;SDS011;53990;50.334;18.640;2022-12-20T03:50:31;33.20;;;17.50;;
67074;SDS011;53990;50.334;18.640;2022-12-20T03:52:58;34.20;;;16.20;;
67074;SDS011;53990;50.334;18.640;2022-12-20T03:55:26;30.70;;;15.30;;
67074;SDS011;53990;50.334;18.640;2022-12-20T03:57:53;31.00;;;17.00;;
67074;SDS011;53990;50.334;18.640;2022-12-20T04:00:20;33.50;;;17.40;;
67074;SDS011;53990;50.334;18.640;2022-12-20T04:02:47;28.60;;;16.30;;
67074;SDS011;53990;50.334;18.640;2022-12-20T04:05:15;32.50;;;16.20;;
67074;SDS011;53990;50.334;18.640;2022-12-20T04:07:42;30.60;;;15.70;;
67074;SDS011;53990;50.334;18.640;2022-12-20T04:10:11;30.50;;;17.50;;
67074;SDS011;53990;50.334;18.640;2022-12-20T04:12:38;30.20;;;15.90;;
67074;SDS011;53990;50.334;18.640;2022-12-20T04:15:06;33.60;;;16.50;;
67074;SDS011;53990;50.334;18.640;2022-12-20T04:17:34;32.80;;;16.40;;
67074;SDS011;53990;50.334;18.640;2022-12-20T04:20:01;33.10;;;17.60;;
67074;SDS011;53990;50.334;18.640;2022-12-20T04:22:48;33.90;;;17.90;;
67074;SDS011;53990;50.334;18.640;2022-12-20T04:25:18;33.70;;;18.30;;
67074;SDS011;53990;50.334;18.640;2022-12-20T04:27:46;32.60;;;17.10;;
67074;SDS011;53990;50.334;18.640;2022-12-20T04:30:13;34.00;;;18.00;;
67074;SDS011;53990;50.334;18.640;2022-12-20T04:32:41;34.40;;;17.40;;
67074;SDS011;53990;50.334;18.640;2022-12-20T04:35:08;33.50;;;17.70;;
67074;SDS011;53990;50.334;18.640;2022-12-20T04:37:36;33.20;;;17.70;;
67074;SDS011;53990;50.334;18.640;2022-12-20T04:40:04;36.50;;;17.60;;
67074;SDS011;53990;50.334;18.640;2022-12-20T04:42:32;31.70;;;17.20;;
67074;SDS011;53990;50.334;18.640;2022-12-20T04:44:59;34.80;;;17.90;;
67074;SDS011;53990;50.334;18.640;2022-12-20T04:47:27;35.20;;;17.50;;
67074;SDS011;53990;50.334;18.640;2022-12-20T04:49:54;32.00;;;16.70;;
67074;SDS011;53990;50.334;18.640;2022-12-20T04:52:21;33.40;;;17.70;;
67074;SDS011;53990;50.334;18.640;2022-12-20T04:55:07;32.90;;;17.50;;
67074;SDS011;53990;50.334;18.640;2022-12-20T04:57:35;33.50;;;17.20;;
67074;SDS011;53990;50.334;18.640;2022-12-20T05:00:02;32.90;;;17.50;;
67074;SDS011;53990;50.334;18.640;2022-12-20T05:02:30;35.90;;;18.40;;
67074;SDS011;53990;50.334;18.640;2022-12-20T05:04:57;34.20;;;17.80;;
67074;SDS011;53990;50.334;18.640;2022-12-20T05:07:24;32.80;;;16.90;;
67074;SDS011;53990;50.334;18.640;2022-12-20T05:09:51;37.80;;;19.00;;
67074;SDS011;53990;50.334;18.640;2022-12-20T05:12:19;34.00;;;17.60;;
67074;SDS011;53990;50.334;18.640;2022-12-20T05:14:46;33.50;;;17.00;;
67074;SDS011;53990;50.334;18.640;2022-12-20T05:17:13;32.20;;;16.90;;
67074;SDS011;53990;50.334;18.640;2022-12-20T05:19:40;31.80;;;17.40;;
67074;SDS011;53990;50.334;18.640;2022-12-20T05:22:09;33.00;;;17.60;;
67074;SDS011;53990;50.334;18.640;2022-12-20T05:24:55;33.30;;;18.00;;
67074;SDS011;53990;50.334;18.640;2022-12-20T05:27:41;36.30;;;18.00;;
67074;SDS011;53990;50.334;18.640;2022-12-20T05:30:09;32.90;;;16.70;;
67074;SDS011;53990;50.334;18.640;2022-12-20T05:32:37;36.20;;;18.20;;
67074;SDS011;53990;50.334;18.640;2022-12-20T05:35:04;34.00;;;17.10;;
67074;SDS011;53990;50.334;18.640;2022-12-20T05:37:31;32.50;;;16.70;;
67074;SDS011;53990;50.334;18.640;2022-12-20T05:39:58;35.70;;;17.80;;
67074;SDS011;53990;50.334;18.640;2022-12-20T05:42:26;34.50;;;17.20;;
67074;SDS011;53990;50.334;18.640;2022-12-20T05:44:53;32.60;;;16.90;;
67074;SDS011;53990;50.334;18.640;2022-12-20T05:47:20;35.90;;;18.60;;
67074;SDS011;53990;50.334;18.640;2022-12-20T05:49:47;35.10;;;17.50;;
67074;SDS011;53990;50.334;18.640;2022-12-20T05:52:15;37.90;;;21.10;;
67074;SDS011;53990;50.334;18.640;2022-12-20T05:54:42;33.30;;;18.40;;
67074;SDS011;53990;50.334;18.640;2022-12-20T05:57:09;35.20;;;18.60;;
67074;SDS011;53990;50.334;18.640;2022-12-20T05:59:36;35.80;;;18.60;;
67074;SDS011;53990;50.334;18.640;2022-12-20T06:02:03;35.10;;;18.00;;
67074;SDS011;53990;50.334;18.640;2022-12-20T06:04:32;35.80;;;18.50;;
67074;SDS011;53990;50.334;18.640;2022-12-20T06:06:59;38.30;;;20.10;;
67074;SDS011;53990;50.334;18.640;2022-12-20T06:09:26;37.50;;;19.10;;
67074;SDS011;53990;50.334;18.640;2022-12-20T06:11:53;35.50;;;19.20;;
67074;SDS011;53990;50.334;18.640;2022-12-20T06:14:21;40.10;;;20.40;;
67074;SDS011;53990;50.334;18.640;2022-12-20T06:16:48;36.70;;;19.60;;
67074;SDS011;53990;50.334;18.640;2022-12-20T06:19:16;32.60;;;17.80;;
67074;SDS011;53990;50.334;18.640;2022-12-20T06:21:43;38.20;;;18.70;;
67074;SDS011;53990;50.334;18.640;2022-12-20T06:24:10;35.30;;;19.40;;
67074;SDS011;53990;50.334;18.640;2022-12-20T06:26:37;35.60;;;17.30;;
67074;SDS011;53990;50.334;18.640;2022-12-20T06:29:05;35.00;;;17.60;;
67074;SDS011;53990;50.334;18.640;2022-12-20T06:31:40;34.20;;;18.40;;
67074;SDS011;53990;50.334;18.640;2022-12-20T06:34:07;37.40;;;17.90;;
67074;SDS011;53990;50.334;18.640;2022-12-20T06:36:34;36.60;;;19.60;;
67074;SDS011;53990;50.334;18.640;2022-12-20T06:39:02;34.70;;;19.20;;
67074;SDS011;53990;50.334;18.640;2022-12-20T06:41:29;34.50;;;17.60;;
67074;SDS011;53990;50.334;18.640;2022-12-20T06:43:57;32.50;;;17.40;;
67074;SDS011;53990;50.334;18.640;2022-12-20T06:46:24;36.80;;;19.20;;
67074;SDS011;53990;50.334;18.640;2022-12-20T06:48:52;35.10;;;18.20;;
67074;SDS011;53990;50.334;18.640;2022-12-20T06:51:19;36.70;;;19.20;;
67074;SDS011;53990;50.334;18.640;2022-12-20T06:53:46;35.70;;;19.30;;
67074;SDS011;53990;50.334;18.640;2022-12-20T06:56:13;35.80;;;19.70;;
67074;SDS011;53990;50.334;18.640;2022-12-20T06:58:40;33.20;;;16.30;;
67074;SDS011;53990;50.334;18.640;2022-12-20T07:01:08;36.40;;;18.60;;
67074;SDS011;53990;50.334;18.640;2022-12-20T07:03:35;35.90;;;17.90;;
67074;SDS011;53990;50.334;18.640;2022-12-20T07:06:02;38.20;;;18.50;;
67074;SDS011;53990;50.334;18.640;2022-12-20T07:08:30;36.40;;;19.80;;
67074;SDS011;53990;50.334;18.640;2022-12-20T07:11:03;37.50;;;19.50;;
67074;SDS011;53990;50.334;18.640;2022-12-20T07:13:32;38.40;;;19.20;;
67074;SDS011;53990;50.334;18.640;2022-12-20T07:16:00;32.70;;;17.70;;
67074;SDS011;53990;50.334;18.640;2022-12-20T07:18:29;37.30;;;19.60;;
67074;SDS011;53990;50.334;18.640;2022-12-20T07:21:00;34.40;;;18.30;;
67074;SDS011;53990;50.334;18.640;2022-12-20T07:23:28;33.70;;;17.60;;
67074;SDS011;53990;50.334;18.640;2022-12-20T07:25:57;34.90;;;17.80;;
67074;SDS011;53990;50.334;18.640;2022-12-20T07:28:26;33.60;;;18.50;;
67074;SDS011;53990;50.334;18.640;2022-12-20T07:30:53;34.00;;;18.10;;
67074;SDS011;53990;50.334;18.640;2022-12-20T07:33:21;38.40;;;19.50;;
67074;SDS011;53990;50.334;18.640;2022-12-20T07:35:48;36.00;;;19.20;;
67074;SDS011;53990;50.334;18.640;2022-12-20T07:38:15;38.20;;;18.60;;
67074;SDS011;53990;50.334;18.640;2022-12-20T07:40:43;37.80;;;19.30;;
67074;SDS011;53990;50.334;18.640;2022-12-20T07:43:10;36.50;;;19.00;;
67074;SDS011;53990;50.334;18.640;2022-12-20T07:45:37;33.50;;;18.70;;
67074;SDS011;53990;50.334;18.640;2022-12-20T07:48:05;37.20;;;19.20;;
67074;SDS011;53990;50.334;18.640;2022-12-20T07:50:33;48.70;;;23.60;;
67074;SDS011;53990;50.334;18.640;2022-12-20T07:53:03;35.00;;;18.80;;
67074;SDS011;53990;50.334;18.640;2022-12-20T07:55:32;34.60;;;18.50;;
67074;SDS011;53990;50.334;18.640;2022-12-20T07:58:03;37.30;;;19.30;;
67074;SDS011;53990;50.334;18.640;2022-12-20T08:00:32;35.90;;;20.40;;
67074;SDS011;53990;50.334;18.640;2022-12-20T08:05:27;35.90;;;18.30;;
67074;SDS011;53990;50.334;18.640;2022-12-20T08:07:57;35.80;;;18.50;;
67074;SDS011;53990;50.334;18.640;2022-12-20T08:10:25;35.00;;;18.40;;
67074;SDS011;53990;50.334;18.640;2022-12-20T08:12:53;36.20;;;19.60;;
67074;SDS011;53990;50.334;18.640;2022-12-20T08:15:21;36.20;;;18.60;;
67074;SDS011;53990;50.334;18.640;2022-12-20T08:17:51;32.60;;;18.50;;
67074;SDS011;53990;50.334;18.640;2022-12-20T08:20:19;35.50;;;17.90;;
67074;SDS011;53990;50.334;18.640;2022-12-20T08:22:46;31.40;;;17.50;;
67074;SDS011;53990;50.334;18.640;2022-12-20T08:25:13;32.60;;;17.50;;
67074;SDS011;53990;50.334;18.640;2022-12-20T08:27:40;32.30;;;17.80;;
67074;SDS011;53990;50.334;18.640;2022-12-20T08:30:08;33.20;;;17.90;;
67074;SDS011;53990;50.334;18.640;2022-12-20T08:32:37;35.60;;;18.90;;
67074;SDS011;53990;50.334;18.640;2022-12-20T08:35:05;35.00;;;18.20;;
67074;SDS011;53990;50.334;18.640;2022-12-20T08:37:33;35.00;;;18.40;;
67074;SDS011;53990;50.334;18.640;2022-12-20T08:40:00;33.20;;;17.70;;
67074;SDS011;53990;50.334;18.640;2022-12-20T08:42:28;33.60;;;18.50;;
67074;SDS011;53990;50.334;18.640;2022-12-20T08:44:56;33.30;;;18.50;;
67074;SDS011;53990;50.334;18.640;2022-12-20T08:47:23;34.60;;;18.30;;
67074;SDS011;53990;50.334;18.640;2022-12-20T08:49:50;37.20;;;19.70;;
67074;SDS011;53990;50.334;18.640;2022-12-20T08:52:17;39.20;;;20.90;;
67074;SDS011;53990;50.334;18.640;2022-12-20T08:54:45;35.30;;;19.40;;
67074;SDS011;53990;50.334;18.640;2022-12-20T08:57:12;32.50;;;17.10;;
67074;SDS011;53990;50.334;18.640;2022-12-20T08:59:39;32.60;;;18.70;;
67074;SDS011;53990;50.334;18.640;2022-12-20T09:02:06;30.50;;;17.80;;
67074;SDS011;53990;50.334;18.640;2022-12-20T09:04:34;33.10;;;18.10;;
67074;SDS011;53990;50.334;18.640;2022-12-20T09:07:01;31.20;;;17.70;;
67074;SDS011;53990;50.334;18.640;2022-12-20T09:09:28;33.00;;;17.10;;
67074;SDS011;53990;50.334;18.640;2022-12-20T09:11:57;32.80;;;17.30;;
67074;SDS011;53990;50.334;18.640;2022-12-20T09:26:25;30.10;;;17.90;;
67074;SDS011;53990;50.334;18.640;2022-12-20T09:28:52;31.20;;;17.30;;
67074;SDS011;53990;50.334;18.640;2022-12-20T09:31:21;31.10;;;17.10;;
67074;SDS011;53990;50.334;18.640;2022-12-20T09:33:52;28.10;;;16.80;;
67074;SDS011;53990;50.334;18.640;2022-12-20T09:36:21;30.00;;;17.20;;
67074;SDS011;53990;50.334;18.640;2022-12-20T09:38:49;29.50;;;17.50;;
67074;SDS011;53990;50.334;18.640;2022-12-20T09:41:38;32.90;;;17.70;;
67074;SDS011;53990;50.334;18.640;2022-12-20T09:44:31;36.10;;;17.40;;
67074;SDS011;53990;50.334;18.640;2022-12-20T09:47:04;31.60;;;17.70;;
67074;SDS011;53990;50.334;18.640;2022-12-20T09:49:38;29.40;;;17.80;;
67074;SDS011;53990;50.334;18.640;2022-12-20T09:52:24;30.40;;;16.60;;
67074;SDS011;53990;50.334;18.640;2022-12-20T09:56:04;28.90;;;17.40;;
67074;SDS011;53990;50.334;18.640;2022-12-20T09:58:22;30.00;;;17.80;;
67074;SDS011;53990;50.334;18.640;2022-12-20T10:00:53;29.60;;;17.10;;
67074;SDS011;53990;50.334;18.640;2022-12-20T10:03:28;28.10;;;15.70;;
67074;SDS011;53990;50.334;18.640;2022-12-20T10:06:02;29.90;;;16.80;;
67074;SDS011;53990;50.334;18.640;2022-12-20T10:08:47;31.60;;;17.50;;
67074;SDS011;53990;50.334;18.640;2022-12-20T10:11:44;30.00;;;17.50;;
67074;SDS011;53990;50.334;18.640;2022-12-20T10:17:38;33.10;;;18.20;;
67074;SDS011;53990;50.334;18.640;2022-12-20T10:25:19;29.20;;;16.50;;
67074;SDS011;53990;50.334;18.640;2022-12-20T10:27:50;30.70;;;17.40;;
67074;SDS011;53990;50.334;18.640;2022-12-20T10:30:21;30.50;;;17.50;;
67074;SDS011;53990;50.334;18.640;2022-12-20T10:32:54;28.80;;;16.80;;
67074;SDS011;53990;50.334;18.640;2022-12-20T10:35:39;30.60;;;17.40;;
67074;SDS011;53990;50.334;18.640;2022-12-20T10:38:09;30.90;;;17.00;;
67074;SDS011;53990;50.334;18.640;2022-12-20T10:40:49;27.10;;;16.50;;
67074;SDS011;53990;50.334;18.640;2022-12-20T10:43:25;31.60;;;17.30;;
67074;SDS011;53990;50.334;18.640;2022-12-20T10:46:13;30.00;;;17.50;;
67074;SDS011;53990;50.334;18.640;2022-12-20T10:48:44;34.10;;;18.40;;
67074;SDS011;53990;50.334;18.640;2022-12-20T10:51:13;29.70;;;17.20;;
67074;SDS011;53990;50.334;18.640;2022-12-20T10:53:56;30.60;;;17.70;;
67074;SDS011;53990;50.334;18.640;2022-12-20T10:56:35;30.80;;;18.60;;
67074;SDS011;53990;50.334;18.640;2022-12-20T11:01:43;27.30;;;16.90;;
67074;SDS011;53990;50.334;18.640;2022-12-20T11:04:35;29.30;;;17.60;;
67074;SDS011;53990;50.334;18.640;2022-12-20T11:07:23;30.60;;;18.50;;
67074;SDS011;53990;50.334;18.640;2022-12-20T11:09:55;31.60;;;19.20;;
67074;SDS011;53990;50.334;18.640;2022-12-20T11:12:23;28.30;;;18.30;;
67074;SDS011;53990;50.334;18.640;2022-12-20T11:15:06;28.80;;;18.20;;
67074;SDS011;53990;50.334;18.640;2022-12-20T11:17:37;26.80;;;18.30;;
67074;SDS011;53990;50.334;18.640;2022-12-20T11:20:15;27.00;;;18.20;;
67074;SDS011;53990;50.334;18.640;2022-12-20T11:23:49;28.60;;;18.90;;
67074;SDS011;53990;50.334;18.640;2022-12-20T11:25:58;26.50;;;17.10;;
67074;SDS011;53990;50.334;18.640;2022-12-20T11:28:43;25.50;;;17.60;;
67074;SDS011;53990;50.334;18.640;2022-12-20T11:47:20;29.40;;;18.20;;
67074;SDS011;53990;50.334;18.640;2022-12-20T11:52:48;28.60;;;17.70;;
67074;SDS011;53990;50.334;18.640;2022-12-20T11:55:23;27.90;;;17.40;;
67074;SDS011;53990;50.334;18.640;2022-12-20T11:58:00;29.10;;;18.00;;
67074;SDS011;53990;50.334;18.640;2022-12-20T12:00:28;30.30;;;19.00;;
67074;SDS011;53990;50.334;18.640;2022-12-20T12:03:02;27.50;;;17.90;;
67074;SDS011;53990;50.334;18.640;2022-12-20T12:05:55;32.10;;;19.20;;
67074;SDS011;53990;50.334;18.640;2022-12-20T12:08:33;31.60;;;18.00;;
67074;SDS011;53990;50.334;18.640;2022-12-20T12:11:20;29.10;;;17.90;;
67074;SDS011;53990;50.334;18.640;2022-12-20T12:13:49;31.80;;;18.80;;
67074;SDS011;53990;50.334;18.640;2022-12-20T12:16:32;32.70;;;18.80;;
67074;SDS011;53990;50.334;18.640;2022-12-20T12:19:01;33.20;;;19.50;;
67074;SDS011;53990;50.334;18.640;2022-12-20T12:24:27;32.60;;;18.90;;
67074;SDS011;53990;50.334;18.640;2022-12-20T12:26:59;31.70;;;18.70;;
67074;SDS011;53990;50.334;18.640;2022-12-20T12:29:28;31.60;;;18.50;;
67074;SDS011;53990;50.334;18.640;2022-12-20T12:32:09;31.80;;;18.70;;
67074;SDS011;53990;50.334;18.640;2022-12-20T12:34:56;35.10;;;20.00;;
67074;SDS011;53990;50.334;18.640;2022-12-20T12:45:33;31.20;;;18.70;;
67074;SDS011;53990;50.334;18.640;2022-12-20T12:48:10;32.40;;;19.10;;
67074;SDS011;53990;50.334;18.640;2022-12-20T12:50:44;33.90;;;19.50;;
67074;SDS011;53990;50.334;18.640;2022-12-20T12:53:19;31.40;;;18.40;;
67074;SDS011;53990;50.334;18.640;2022-12-20T13:00:54;29.90;;;18.50;;
67074;SDS011;53990;50.334;18.640;2022-12-20T13:03:41;33.30;;;18.80;;
67074;SDS011;53990;50.334;18.640;2022-12-20T13:09:34;34.00;;;19.50;;
67074;SDS011;53990;50.334;18.640;2022-12-20T13:17:57;31.00;;;18.10;;
67074;SDS011;53990;50.334;18.640;2022-12-20T13:20:28;33.60;;;18.70;;
67074;SDS011;53990;50.334;18.640;2022-12-20T13:33:50;42.10;;;24.80;;
67074;SDS011;53990;50.334;18.640;2022-12-20T13:39:28;37.00;;;19.20;;
67074;SDS011;53990;50.334;18.640;2022-12-20T13:42:08;34.50;;;18.90;;
67074;SDS011;53990;50.334;18.640;2022-12-20T13:44:43;36.20;;;20.00;;
67074;SDS011;53990;50.334;18.640;2022-12-20T13:47:21;34.70;;;19.90;;
67074;SDS011;53990;50.334;18.640;2022-12-20T13:49:49;34.70;;;19.80;;
67074;SDS011;53990;50.334;18.640;2022-12-20T13:52:24;40.70;;;21.50;;
67074;SDS011;53990;50.334;18.640;2022-12-20T13:54:56;34.80;;;20.30;;
67074;SDS011;53990;50.334;18.640;2022-12-20T13:57:28;49.20;;;26.80;;
67074;SDS011;53990;50.334;18.640;2022-12-20T13:59:59;35.20;;;19.90;;
67074;SDS011;53990;50.334;18.640;2022-12-20T14:02:31;36.90;;;20.00;;
67074;SDS011;53990;50.334;18.640;2022-12-20T14:05:02;34.30;;;19.50;;
67074;SDS011;53990;50.334;18.640;2022-12-20T14:07:31;36.60;;;20.20;;
67074;SDS011;53990;50.334;18.640;2022-12-20T14:10:11;36.70;;;20.20;;
67074;SDS011;53990;50.334;18.640;2022-12-20T14:12:44;34.90;;;20.00;;
67074;SDS011;53990;50.334;18.640;2022-12-20T14:15:31;33.00;;;19.60;;
67074;SDS011;53990;50.334;18.640;2022-12-20T14:20:49;36.70;;;20.40;;
67074;SDS011;53990;50.334;18.640;2022-12-20T14:23:21;37.20;;;19.60;;
67074;SDS011;53990;50.334;18.640;2022-12-20T14:25:55;34.50;;;19.90;;
67074;SDS011;53990;50.334;18.640;2022-12-20T14:30:59;42.60;;;21.70;;
67074;SDS011;53990;50.334;18.640;2022-12-20T14:33:37;38.20;;;20.60;;
67074;SDS011;53990;50.334;18.640;2022-12-20T14:36:25;34.90;;;19.80;;
67074;SDS011;53990;50.334;18.640;2022-12-20T14:38:53;36.30;;;20.00;;
67074;SDS011;53990;50.334;18.640;2022-12-20T14:46:34;37.20;;;21.70;;
67074;SDS011;53990;50.334;18.640;2022-12-20T14:51:45;38.40;;;21.60;;
67074;SDS011;53990;50.334;18.640;2022-12-20T14:54:26;40.60;;;22.70;;
67074;SDS011;53990;50.334;18.640;2022-12-20T14:56:54;40.70;;;22.90;;
67074;SDS011;53990;50.334;18.640;2022-12-20T14:59:25;39.90;;;21.90;;
67074;SDS011;53990;50.334;18.640;2022-12-20T15:01:53;41.80;;;23.30;;
67074;SDS011;53990;50.334;18.640;2022-12-20T15:06:55;37.80;;;22.50;;
67074;SDS011;53990;50.334;18.640;2022-12-20T15:09:22;40.30;;;21.70;;
67074;SDS011;53990;50.334;18.640;2022-12-20T15:11:50;41.30;;;22.20;;
67074;SDS011;53990;50.334;18.640;2022-12-20T15:14:31;38.80;;;21.50;;
67074;SDS011;53990;50.334;18.640;2022-12-20T15:17:00;37.90;;;19.90;;
67074;SDS011;53990;50.334;18.640;2022-12-20T15:19:27;38.80;;;21.40;;
67074;SDS011;53990;50.334;18.640;2022-12-20T15:21:54;37.40;;;20.50;;
67074;SDS011;53990;50.334;18.640;2022-12-20T15:24:26;37.40;;;20.20;;
67074;SDS011;53990;50.334;18.640;2022-12-20T15:26:55;37.30;;;20.60;;
67074;SDS011;53990;50.334;18.640;2022-12-20T15:29:24;38.20;;;20.90;;
67074;SDS011;53990;50.334;18.640;2022-12-20T15:31:59;37.70;;;21.00;;
67074;SDS011;53990;50.334;18.640;2022-12-20T15:34:33;42.10;;;22.10;;
67074;SDS011;53990;50.334;18.640;2022-12-20T15:37:01;41.20;;;22.90;;
67074;SDS011;53990;50.334;18.640;2022-12-20T15:39:29;39.30;;;21.30;;
67074;SDS011;53990;50.334;18.640;2022-12-20T15:41:59;41.50;;;22.70;;
67074;SDS011;53990;50.334;18.640;2022-12-20T15:44:28;40.50;;;22.70;;
67074;SDS011;53990;50.334;18.640;2022-12-20T15:46:56;45.20;;;24.40;;
67074;SDS011;53990;50.334;18.640;2022-12-20T15:49:26;39.80;;;22.50;;
67074;SDS011;53990;50.334;18.640;2022-12-20T15:51:55;43.40;;;23.30;;
67074;SDS011;53990;50.334;18.640;2022-12-20T15:54:28;40.00;;;22.80;;
67074;SDS011;53990;50.334;18.640;2022-12-20T15:56:58;48.10;;;23.50;;
67074;SDS011;53990;50.334;18.640;2022-12-20T15:59:25;42.80;;;22.20;;
67074;SDS011;53990;50.334;18.640;2022-12-20T16:01:53;41.50;;;23.10;;
67074;SDS011;53990;50.334;18.640;2022-12-20T16:04:21;44.10;;;24.10;;
67074;SDS011;53990;50.334;18.640;2022-12-20T16:06:49;40.00;;;21.70;;
67074;SDS011;53990;50.334;18.640;2022-12-20T16:09:20;40.50;;;21.60;;
67074;SDS011;53990;50.334;18.640;2022-12-20T16:11:47;41.20;;;22.00;;
67074;SDS011;53990;50.334;18.640;2022-12-20T16:14:16;40.00;;;20.60;;
67074;SDS011;53990;50.334;18.640;2022-12-20T16:16:44;38.30;;;21.50;;
67074;SDS011;53990;50.334;18.640;2022-12-20T16:19:13;34.60;;;20.30;;
67074;SDS011;53990;50.334;18.640;2022-12-20T16:21:46;36.00;;;20.80;;
67074;SDS011;53990;50.334;18.640;2022-12-20T16:24:17;36.90;;;20.70;;
67074;SDS011;53990;50.334;18.640;2022-12-20T16:26:47;39.20;;;22.40;;